sensor_id;sensor_type;location;lat;lon;timestamp;temperature;humidity
8664;DHT22;4369;47.842;13.096;2023-08-06T00:01:39;15.00;99.90
8664;DHT22;4369;47.842;13.096;2023-08-06T00:04:06;15.00;99.90
8664;DHT22;4369;47.842;13.096;2023-08-06T00:06:33;15.10;99.90
8664;DHT22;4369;47.842;13.096;2023-08-06T00:09:00;15.00;99.90
8664;DHT22;4369;47.842;13.096;2023-08-06T00:11:28;15.00;99.90
8664;DHT22;4369;47.842;13.096;2023-08-06T00:13:55;15.10;99.90
8664;DHT22;4369;47.842;13.096;2023-08-06T00:16:22;15.00;99.90
8664;DHT22;4369;47.842;13.096;2023-08-06T00:18:48;15.00;99.90
8664;DHT22;4369;47.842;13.096;2023-08-06T00:21:15;15.00;99.90
8664;DHT22;4369;47.842;13.096;2023-08-06T00:23:42;15.00;99.90
8664;DHT22;4369;47.842;13.096;2023-08-06T00:26:09;15.00;99.90
8664;DHT22;4369;47.842;13.096;2023-08-06T00:28:38;15.10;99.90
8664;DHT22;4369;47.842;13.096;2023-08-06T00:31:05;15.10;99.90
8664;DHT22;4369;47.842;13.096;2023-08-06T00:33:31;15.10;99.90
8664;DHT22;4369;47.842;13.096;2023-08-06T00:35:58;15.10;99.90
8664;DHT22;4369;47.842;13.096;2023-08-06T00:38:25;15.10;99.90
8664;DHT22;4369;47.842;13.096;2023-08-06T00:40:52;15.10;99.90
8664;DHT22;4369;47.842;13.096;2023-08-06T00:43:19;15.10;99.90
8664;DHT22;4369;47.842;13.096;2023-08-06T00:45:48;15.20;99.90
8664;DHT22;4369;47.842;13.096;2023-08-06T00:48:15;15.10;99.90
8664;DHT22;4369;47.842;13.096;2023-08-06T00:50:42;15.10;99.90
8664;DHT22;4369;47.842;13.096;2023-08-06T00:53:09;15.10;99.90
8664;DHT22;4369;47.842;13.096;2023-08-06T00:55:36;15.10;99.90
8664;DHT22;4369;47.842;13.096;2023-08-06T00:58:04;15.10;99.90
8664;DHT22;4369;47.842;13.096;2023-08-06T01:00:31;15.00;99.90
8664;DHT22;4369;47.842;13.096;2023-08-06T01:02:59;15.10;99.90
8664;DHT22;4369;47.842;13.096;2023-08-06T01:05:26;15.00;99.90
8664;DHT22;4369;47.842;13.096;2023-08-06T01:08:06;15.10;99.90
8664;DHT22;4369;47.842;13.096;2023-08-06T01:10:40;15.00;99.90
8664;DHT22;4369;47.842;13.096;2023-08-06T01:13:18;15.00;99.90
8664;DHT22;4369;47.842;13.096;2023-08-06T01:15:53;15.00;99.90
8664;DHT22;4369;47.842;13.096;2023-08-06T01:18:22;15.10;99.90
8664;DHT22;4369;47.842;13.096;2023-08-06T01:20:51;15.10;99.90
8664;DHT22;4369;47.842;13.096;2023-08-06T01:23:18;15.10;99.90
8664;DHT22;4369;47.842;13.096;2023-08-06T01:28:40;15.10;99.90
8664;DHT22;4369;47.842;13.096;2023-08-06T01:31:14;15.00;99.90
8664;DHT22;4369;47.842;13.096;2023-08-06T01:33:44;15.00;99.90
8664;DHT22;4369;47.842;13.096;2023-08-06T01:36:16;14.90;99.90
8664;DHT22;4369;47.842;13.096;2023-08-06T01:38:43;14.80;99.90
8664;DHT22;4369;47.842;13.096;2023-08-06T01:41:10;14.70;99.90
8664;DHT22;4369;47.842;13.096;2023-08-06T01:43:37;14.60;99.90
8664;DHT22;4369;47.842;13.096;2023-08-06T01:46:04;14.60;99.90
8664;DHT22;4369;47.842;13.096;2023-08-06T01:48:30;14.60;99.90
8664;DHT22;4369;47.842;13.096;2023-08-06T01:50:57;14.70;99.90
8664;DHT22;4369;47.842;13.096;2023-08-06T01:53:25;14.60;99.90
8664;DHT22;4369;47.842;13.096;2023-08-06T01:55:52;14.70;99.90
8664;DHT22;4369;47.842;13.096;2023-08-06T01:58:19;14.70;99.90
8664;DHT22;4369;47.842;13.096;2023-08-06T02:00:46;14.60;99.90
8664;DHT22;4369;47.842;13.096;2023-08-06T02:03:13;14.60;99.90
8664;DHT22;4369;47.842;13.096;2023-08-06T02:05:40;14.70;99.90
8664;DHT22;4369;47.842;13.096;2023-08-06T02:08:07;14.80;99.90
8664;DHT22;4369;47.842;13.096;2023-08-06T02:10:35;14.90;99.90
8664;DHT22;4369;47.842;13.096;2023-08-06T02:13:02;14.90;99.90
8664;DHT22;4369;47.842;13.096;2023-08-06T02:15:29;14.90;99.90
8664;DHT22;4369;47.842;13.096;2023-08-06T02:17:56;14.90;99.90
8664;DHT22;4369;47.842;13.096;2023-08-06T02:20:23;14.80;99.90
8664;DHT22;4369;47.842;13.096;2023-08-06T02:22:50;14.60;99.90
8664;DHT22;4369;47.842;13.096;2023-08-06T02:25:16;14.60;99.90
8664;DHT22;4369;47.842;13.096;2023-08-06T02:27:45;14.60;99.90
8664;DHT22;4369;47.842;13.096;2023-08-06T02:30:11;14.60;99.90
8664;DHT22;4369;47.842;13.096;2023-08-06T02:32:38;14.50;99.90
8664;DHT22;4369;47.842;13.096;2023-08-06T02:35:06;14.50;99.90
8664;DHT22;4369;47.842;13.096;2023-08-06T02:37:33;14.50;99.90
8664;DHT22;4369;47.842;13.096;2023-08-06T02:40:00;14.50;99.90
8664;DHT22;4369;47.842;13.096;2023-08-06T02:42:27;14.50;99.90
8664;DHT22;4369;47.842;13.096;2023-08-06T02:44:56;14.50;99.90
8664;DHT22;4369;47.842;13.096;2023-08-06T02:47:23;14.50;99.90
8664;DHT22;4369;47.842;13.096;2023-08-06T02:49:50;14.50;99.90
8664;DHT22;4369;47.842;13.096;2023-08-06T02:52:17;14.50;99.90
8664;DHT22;4369;47.842;13.096;2023-08-06T02:54:43;14.50;99.90
8664;DHT22;4369;47.842;13.096;2023-08-06T02:57:10;14.60;99.90
8664;DHT22;4369;47.842;13.096;2023-08-06T02:59:37;14.60;99.90
8664;DHT22;4369;47.842;13.096;2023-08-06T03:02:05;14.60;99.90
8664;DHT22;4369;47.842;13.096;2023-08-06T03:04:32;14.60;99.90
8664;DHT22;4369;47.842;13.096;2023-08-06T03:06:59;14.60;99.90
8664;DHT22;4369;47.842;13.096;2023-08-06T03:09:26;14.60;99.90
8664;DHT22;4369;47.842;13.096;2023-08-06T03:11:53;14.60;99.90
8664;DHT22;4369;47.842;13.096;2023-08-06T03:14:20;14.60;99.90
8664;DHT22;4369;47.842;13.096;2023-08-06T03:16:46;14.50;99.90
8664;DHT22;4369;47.842;13.096;2023-08-06T03:19:15;14.50;99.90
8664;DHT22;4369;47.842;13.096;2023-08-06T03:21:41;14.50;99.90
8664;DHT22;4369;47.842;13.096;2023-08-06T03:24:08;14.50;99.90
8664;DHT22;4369;47.842;13.096;2023-08-06T03:26:35;14.50;99.90
8664;DHT22;4369;47.842;13.096;2023-08-06T03:29:02;14.40;99.90
8664;DHT22;4369;47.842;13.096;2023-08-06T03:31:29;14.40;99.90
8664;DHT22;4369;47.842;13.096;2023-08-06T03:33:56;14.50;99.90
8664;DHT22;4369;47.842;13.096;2023-08-06T03:36:24;14.40;99.90
8664;DHT22;4369;47.842;13.096;2023-08-06T03:38:51;14.30;99.90
8664;DHT22;4369;47.842;13.096;2023-08-06T03:41:17;14.30;99.90
8664;DHT22;4369;47.842;13.096;2023-08-06T03:43:44;14.30;99.90
8664;DHT22;4369;47.842;13.096;2023-08-06T03:46:11;14.30;99.90
8664;DHT22;4369;47.842;13.096;2023-08-06T03:48:38;14.40;99.90
8664;DHT22;4369;47.842;13.096;2023-08-06T03:51:05;14.40;99.90
8664;DHT22;4369;47.842;13.096;2023-08-06T03:53:33;14.40;99.90
8664;DHT22;4369;47.842;13.096;2023-08-06T03:56:00;14.40;99.90
8664;DHT22;4369;47.842;13.096;2023-08-06T03:58:27;14.50;99.90
8664;DHT22;4369;47.842;13.096;2023-08-06T04:00:58;14.50;99.90
8664;DHT22;4369;47.842;13.096;2023-08-06T04:03:25;14.60;99.90
8664;DHT22;4369;47.842;13.096;2023-08-06T04:05:52;14.50;99.90
8664;DHT22;4369;47.842;13.096;2023-08-06T04:08:19;14.50;99.90
8664;DHT22;4369;47.842;13.096;2023-08-06T04:10:51;14.50;99.90
8664;DHT22;4369;47.842;13.096;2023-08-06T04:13:19;14.50;99.90
8664;DHT22;4369;47.842;13.096;2023-08-06T04:15:46;14.50;99.90
8664;DHT22;4369;47.842;13.096;2023-08-06T04:18:13;14.50;99.90
8664;DHT22;4369;47.842;13.096;2023-08-06T04:20:43;14.60;99.90
8664;DHT22;4369;47.842;13.096;2023-08-06T04:23:10;14.60;99.90
8664;DHT22;4369;47.842;13.096;2023-08-06T04:25:37;14.60;99.90
8664;DHT22;4369;47.842;13.096;2023-08-06T04:28:06;14.50;99.90
8664;DHT22;4369;47.842;13.096;2023-08-06T04:30:33;14.50;99.90
8664;DHT22;4369;47.842;13.096;2023-08-06T04:33:00;14.60;99.90
8664;DHT22;4369;47.842;13.096;2023-08-06T04:35:26;14.50;99.90
8664;DHT22;4369;47.842;13.096;2023-08-06T04:37:53;14.60;99.90
8664;DHT22;4369;47.842;13.096;2023-08-06T04:40:20;14.60;99.90
8664;DHT22;4369;47.842;13.096;2023-08-06T04:42:47;14.70;99.90
8664;DHT22;4369;47.842;13.096;2023-08-06T04:45:15;14.70;99.90
8664;DHT22;4369;47.842;13.096;2023-08-06T04:47:42;14.80;99.90
8664;DHT22;4369;47.842;13.096;2023-08-06T04:50:09;14.70;99.90
8664;DHT22;4369;47.842;13.096;2023-08-06T04:52:41;14.70;99.90
8664;DHT22;4369;47.842;13.096;2023-08-06T04:55:08;14.80;99.90
8664;DHT22;4369;47.842;13.096;2023-08-06T04:57:35;14.80;99.90
8664;DHT22;4369;47.842;13.096;2023-08-06T05:00:02;14.80;99.90
8664;DHT22;4369;47.842;13.096;2023-08-06T05:02:31;14.80;99.90
8664;DHT22;4369;47.842;13.096;2023-08-06T05:05:00;14.90;99.90
8664;DHT22;4369;47.842;13.096;2023-08-06T05:07:27;14.80;99.90
8664;DHT22;4369;47.842;13.096;2023-08-06T05:09:53;14.80;99.90
8664;DHT22;4369;47.842;13.096;2023-08-06T05:12:20;14.80;99.90
8664;DHT22;4369;47.842;13.096;2023-08-06T05:14:47;14.70;99.90
8664;DHT22;4369;47.842;13.096;2023-08-06T05:17:14;14.70;99.90
8664;DHT22;4369;47.842;13.096;2023-08-06T05:19:42;14.70;99.90
8664;DHT22;4369;47.842;13.096;2023-08-06T05:22:09;14.70;99.90
8664;DHT22;4369;47.842;13.096;2023-08-06T05:24:36;14.70;99.90
8664;DHT22;4369;47.842;13.096;2023-08-06T05:27:03;14.70;99.90
8664;DHT22;4369;47.842;13.096;2023-08-06T05:29:30;14.80;99.90
8664;DHT22;4369;47.842;13.096;2023-08-06T05:31:57;14.80;99.90
8664;DHT22;4369;47.842;13.096;2023-08-06T05:34:24;14.90;99.90
8664;DHT22;4369;47.842;13.096;2023-08-06T05:36:52;14.90;99.90
8664;DHT22;4369;47.842;13.096;2023-08-06T05:39:19;14.90;99.90
8664;DHT22;4369;47.842;13.096;2023-08-06T05:41:46;14.90;99.90
8664;DHT22;4369;47.842;13.096;2023-08-06T05:44:13;15.00;99.90
8664;DHT22;4369;47.842;13.096;2023-08-06T05:46:40;15.00;99.90
8664;DHT22;4369;47.842;13.096;2023-08-06T05:49:06;15.00;99.90
8664;DHT22;4369;47.842;13.096;2023-08-06T05:51:34;15.00;99.90
8664;DHT22;4369;47.842;13.096;2023-08-06T05:54:03;14.90;99.90
8664;DHT22;4369;47.842;13.096;2023-08-06T05:56:30;14.90;99.90
8664;DHT22;4369;47.842;13.096;2023-08-06T05:58:57;14.80;99.90
8664;DHT22;4369;47.842;13.096;2023-08-06T06:01:24;14.90;99.90
8664;DHT22;4369;47.842;13.096;2023-08-06T06:03:51;15.00;99.90
8664;DHT22;4369;47.842;13.096;2023-08-06T06:06:18;14.90;99.90
8664;DHT22;4369;47.842;13.096;2023-08-06T06:08:45;14.90;99.90
8664;DHT22;4369;47.842;13.096;2023-08-06T06:11:14;15.00;99.90
8664;DHT22;4369;47.842;13.096;2023-08-06T06:13:40;15.10;99.90
8664;DHT22;4369;47.842;13.096;2023-08-06T06:16:07;15.10;99.90
8664;DHT22;4369;47.842;13.096;2023-08-06T06:18:34;15.10;99.90
8664;DHT22;4369;47.842;13.096;2023-08-06T06:21:01;15.20;99.90
8664;DHT22;4369;47.842;13.096;2023-08-06T06:23:38;15.30;99.90
8664;DHT22;4369;47.842;13.096;2023-08-06T06:28:49;15.30;99.90
8664;DHT22;4369;47.842;13.096;2023-08-06T06:31:16;15.30;99.90
8664;DHT22;4369;47.842;13.096;2023-08-06T06:33:42;15.40;99.90
8664;DHT22;4369;47.842;13.096;2023-08-06T06:36:09;15.50;99.90
8664;DHT22;4369;47.842;13.096;2023-08-06T06:38:36;15.50;99.90
8664;DHT22;4369;47.842;13.096;2023-08-06T06:41:03;15.70;99.90
8664;DHT22;4369;47.842;13.096;2023-08-06T06:43:30;15.60;99.90
8664;DHT22;4369;47.842;13.096;2023-08-06T06:45:58;15.50;99.90
8664;DHT22;4369;47.842;13.096;2023-08-06T06:48:27;15.60;99.90
8664;DHT22;4369;47.842;13.096;2023-08-06T06:50:55;15.70;99.90
8664;DHT22;4369;47.842;13.096;2023-08-06T06:53:22;15.70;99.90
8664;DHT22;4369;47.842;13.096;2023-08-06T06:55:52;15.70;99.90
8664;DHT22;4369;47.842;13.096;2023-08-06T06:58:19;15.70;99.90
8664;DHT22;4369;47.842;13.096;2023-08-06T07:00:47;15.80;99.90
8664;DHT22;4369;47.842;13.096;2023-08-06T07:03:15;15.80;99.90
8664;DHT22;4369;47.842;13.096;2023-08-06T07:05:43;15.80;99.90
8664;DHT22;4369;47.842;13.096;2023-08-06T07:08:09;15.70;99.90
8664;DHT22;4369;47.842;13.096;2023-08-06T07:10:37;15.60;99.90
8664;DHT22;4369;47.842;13.096;2023-08-06T07:13:03;15.40;99.90
8664;DHT22;4369;47.842;13.096;2023-08-06T07:15:30;15.40;99.90
8664;DHT22;4369;47.842;13.096;2023-08-06T07:17:57;15.30;99.90
8664;DHT22;4369;47.842;13.096;2023-08-06T07:20:25;15.30;99.90
8664;DHT22;4369;47.842;13.096;2023-08-06T07:22:54;15.20;99.90
8664;DHT22;4369;47.842;13.096;2023-08-06T07:25:21;15.30;99.90
8664;DHT22;4369;47.842;13.096;2023-08-06T07:27:48;15.30;99.90
8664;DHT22;4369;47.842;13.096;2023-08-06T07:30:15;15.20;99.90
8664;DHT22;4369;47.842;13.096;2023-08-06T07:32:42;15.30;99.90
8664;DHT22;4369;47.842;13.096;2023-08-06T07:35:09;15.30;99.90
8664;DHT22;4369;47.842;13.096;2023-08-06T07:37:39;15.40;99.90
8664;DHT22;4369;47.842;13.096;2023-08-06T07:40:07;15.30;99.90
8664;DHT22;4369;47.842;13.096;2023-08-06T07:42:34;15.40;99.90
8664;DHT22;4369;47.842;13.096;2023-08-06T07:45:02;15.60;99.90
8664;DHT22;4369;47.842;13.096;2023-08-06T07:47:29;15.70;99.90
8664;DHT22;4369;47.842;13.096;2023-08-06T07:49:56;15.80;99.90
8664;DHT22;4369;47.842;13.096;2023-08-06T07:52:23;15.70;99.90
8664;DHT22;4369;47.842;13.096;2023-08-06T07:54:51;15.70;99.90
8664;DHT22;4369;47.842;13.096;2023-08-06T07:57:18;15.80;99.90
8664;DHT22;4369;47.842;13.096;2023-08-06T07:59:45;16.00;99.90
8664;DHT22;4369;47.842;13.096;2023-08-06T08:02:12;16.10;99.90
8664;DHT22;4369;47.842;13.096;2023-08-06T08:04:38;16.20;99.90
8664;DHT22;4369;47.842;13.096;2023-08-06T08:07:05;16.30;99.90
8664;DHT22;4369;47.842;13.096;2023-08-06T08:09:34;16.40;99.90
8664;DHT22;4369;47.842;13.096;2023-08-06T08:12:03;16.50;99.90
8664;DHT22;4369;47.842;13.096;2023-08-06T08:14:30;16.30;99.90
8664;DHT22;4369;47.842;13.096;2023-08-06T08:17:01;16.30;99.90
8664;DHT22;4369;47.842;13.096;2023-08-06T08:19:27;16.50;99.90
8664;DHT22;4369;47.842;13.096;2023-08-06T08:21:54;16.70;99.90
8664;DHT22;4369;47.842;13.096;2023-08-06T08:24:22;16.90;99.90
8664;DHT22;4369;47.842;13.096;2023-08-06T08:26:50;16.90;99.90
8664;DHT22;4369;47.842;13.096;2023-08-06T08:29:20;17.00;99.90
8664;DHT22;4369;47.842;13.096;2023-08-06T08:31:47;17.20;99.90
8664;DHT22;4369;47.842;13.096;2023-08-06T08:34:15;17.20;99.90
8664;DHT22;4369;47.842;13.096;2023-08-06T08:36:42;17.30;99.90
8664;DHT22;4369;47.842;13.096;2023-08-06T08:39:09;17.30;99.90
8664;DHT22;4369;47.842;13.096;2023-08-06T08:41:37;17.30;99.90
8664;DHT22;4369;47.842;13.096;2023-08-06T08:44:06;17.30;99.90
8664;DHT22;4369;47.842;13.096;2023-08-06T08:46:36;17.30;99.90
8664;DHT22;4369;47.842;13.096;2023-08-06T08:49:04;17.40;99.90
8664;DHT22;4369;47.842;13.096;2023-08-06T08:51:33;17.50;99.90
8664;DHT22;4369;47.842;13.096;2023-08-06T08:54:02;17.70;99.90
8664;DHT22;4369;47.842;13.096;2023-08-06T08:56:29;17.90;99.90
8664;DHT22;4369;47.842;13.096;2023-08-06T08:58:56;18.10;99.90
8664;DHT22;4369;47.842;13.096;2023-08-06T09:01:24;17.90;97.00
8664;DHT22;4369;47.842;13.096;2023-08-06T09:03:54;17.80;84.40
8664;DHT22;4369;47.842;13.096;2023-08-06T09:06:21;17.70;87.90
8664;DHT22;4369;47.842;13.096;2023-08-06T09:08:53;17.60;99.90
8664;DHT22;4369;47.842;13.096;2023-08-06T09:11:23;17.50;99.90
8664;DHT22;4369;47.842;13.096;2023-08-06T09:13:50;17.30;88.20
8664;DHT22;4369;47.842;13.096;2023-08-06T09:16:17;17.30;97.10
8664;DHT22;4369;47.842;13.096;2023-08-06T09:18:44;17.20;92.30
8664;DHT22;4369;47.842;13.096;2023-08-06T09:21:15;17.30;99.90
8664;DHT22;4369;47.842;13.096;2023-08-06T09:23:42;17.30;92.30
8664;DHT22;4369;47.842;13.096;2023-08-06T09:26:11;17.40;99.90
8664;DHT22;4369;47.842;13.096;2023-08-06T09:28:39;17.50;99.90
8664;DHT22;4369;47.842;13.096;2023-08-06T09:31:08;17.60;99.90
8664;DHT22;4369;47.842;13.096;2023-08-06T09:33:36;17.60;99.90
8664;DHT22;4369;47.842;13.096;2023-08-06T09:36:10;17.60;99.90
8664;DHT22;4369;47.842;13.096;2023-08-06T09:38:41;17.40;99.90
8664;DHT22;4369;47.842;13.096;2023-08-06T09:41:07;17.40;99.90
8664;DHT22;4369;47.842;13.096;2023-08-06T09:46:17;17.60;99.90
8664;DHT22;4369;47.842;13.096;2023-08-06T09:48:47;17.90;99.90
8664;DHT22;4369;47.842;13.096;2023-08-06T09:51:14;17.60;47.00
8664;DHT22;4369;47.842;13.096;2023-08-06T09:53:43;17.80;60.70
8664;DHT22;4369;47.842;13.096;2023-08-06T09:56:11;17.80;21.00
8664;DHT22;4369;47.842;13.096;2023-08-06T09:58:39;18.00;46.40
8664;DHT22;4369;47.842;13.096;2023-08-06T10:01:06;17.90;1.00
8664;DHT22;4369;47.842;13.096;2023-08-06T10:03:35;17.70;2.90
8664;DHT22;4369;47.842;13.096;2023-08-06T10:06:04;17.70;1.00
8664;DHT22;4369;47.842;13.096;2023-08-06T10:08:33;17.80;1.00
8664;DHT22;4369;47.842;13.096;2023-08-06T10:11:02;17.90;39.50
8664;DHT22;4369;47.842;13.096;2023-08-06T10:13:31;18.00;1.00
8664;DHT22;4369;47.842;13.096;2023-08-06T10:15:59;18.10;1.00
8664;DHT22;4369;47.842;13.096;2023-08-06T10:18:27;18.40;1.00
8664;DHT22;4369;47.842;13.096;2023-08-06T10:20:55;18.20;1.00
8664;DHT22;4369;47.842;13.096;2023-08-06T10:23:33;18.10;1.00
8664;DHT22;4369;47.842;13.096;2023-08-06T10:26:02;18.10;1.00
8664;DHT22;4369;47.842;13.096;2023-08-06T10:28:34;17.90;99.90
8664;DHT22;4369;47.842;13.096;2023-08-06T10:31:01;17.90;1.00
8664;DHT22;4369;47.842;13.096;2023-08-06T10:33:41;17.90;1.00
8664;DHT22;4369;47.842;13.096;2023-08-06T10:36:09;17.80;99.90
8664;DHT22;4369;47.842;13.096;2023-08-06T10:38:44;17.80;99.90
8664;DHT22;4369;47.842;13.096;2023-08-06T10:41:22;17.60;99.90
8664;DHT22;4369;47.842;13.096;2023-08-06T10:43:50;17.40;99.90
8664;DHT22;4369;47.842;13.096;2023-08-06T10:46:26;17.20;99.90
8664;DHT22;4369;47.842;13.096;2023-08-06T10:48:53;17.30;99.90
8664;DHT22;4369;47.842;13.096;2023-08-06T10:51:20;17.20;99.90
8664;DHT22;4369;47.842;13.096;2023-08-06T10:53:49;17.10;99.90
8664;DHT22;4369;47.842;13.096;2023-08-06T10:56:19;17.00;99.90
8664;DHT22;4369;47.842;13.096;2023-08-06T10:58:49;16.90;99.90
8664;DHT22;4369;47.842;13.096;2023-08-06T11:01:17;16.80;99.90
8664;DHT22;4369;47.842;13.096;2023-08-06T11:03:46;16.90;24.90
8664;DHT22;4369;47.842;13.096;2023-08-06T11:06:17;17.10;1.00
8664;DHT22;4369;47.842;13.096;2023-08-06T11:08:47;17.10;1.00
8664;DHT22;4369;47.842;13.096;2023-08-06T11:11:17;17.10;1.00
8664;DHT22;4369;47.842;13.096;2023-08-06T11:13:46;17.10;1.00
8664;DHT22;4369;47.842;13.096;2023-08-06T11:16:14;17.00;1.00
8664;DHT22;4369;47.842;13.096;2023-08-06T11:18:41;17.00;99.90
8664;DHT22;4369;47.842;13.096;2023-08-06T11:21:08;16.90;99.90
8664;DHT22;4369;47.842;13.096;2023-08-06T11:23:35;16.90;1.00
8664;DHT22;4369;47.842;13.096;2023-08-06T11:26:02;16.90;99.90
8664;DHT22;4369;47.842;13.096;2023-08-06T11:28:31;17.00;99.90
8664;DHT22;4369;47.842;13.096;2023-08-06T11:30:58;17.20;99.90
8664;DHT22;4369;47.842;13.096;2023-08-06T11:33:28;17.40;1.00
8664;DHT22;4369;47.842;13.096;2023-08-06T11:35:57;17.50;1.00
8664;DHT22;4369;47.842;13.096;2023-08-06T11:38:25;17.60;99.90
8664;DHT22;4369;47.842;13.096;2023-08-06T11:40:52;17.50;1.00
8664;DHT22;4369;47.842;13.096;2023-08-06T11:43:19;17.40;1.00
8664;DHT22;4369;47.842;13.096;2023-08-06T11:45:49;17.20;1.00
8664;DHT22;4369;47.842;13.096;2023-08-06T11:48:18;17.20;99.90
8664;DHT22;4369;47.842;13.096;2023-08-06T11:50:44;16.90;99.90
8664;DHT22;4369;47.842;13.096;2023-08-06T11:53:13;16.90;99.90
8664;DHT22;4369;47.842;13.096;2023-08-06T11:55:40;16.90;99.90
8664;DHT22;4369;47.842;13.096;2023-08-06T11:58:09;16.90;1.00
8664;DHT22;4369;47.842;13.096;2023-08-06T12:00:36;17.10;1.00
8664;DHT22;4369;47.842;13.096;2023-08-06T12:03:05;17.30;99.90
8664;DHT22;4369;47.842;13.096;2023-08-06T12:05:32;17.60;99.90
8664;DHT22;4369;47.842;13.096;2023-08-06T12:08:00;17.70;1.00
8664;DHT22;4369;47.842;13.096;2023-08-06T12:10:29;17.70;1.00
8664;DHT22;4369;47.842;13.096;2023-08-06T12:12:56;17.40;1.00
8664;DHT22;4369;47.842;13.096;2023-08-06T12:15:24;17.40;1.00
8664;DHT22;4369;47.842;13.096;2023-08-06T12:17:51;17.30;1.00
8664;DHT22;4369;47.842;13.096;2023-08-06T12:20:19;17.40;1.00
8664;DHT22;4369;47.842;13.096;2023-08-06T12:22:46;17.70;1.00
8664;DHT22;4369;47.842;13.096;2023-08-06T12:25:12;17.90;1.00
8664;DHT22;4369;47.842;13.096;2023-08-06T12:27:41;18.20;1.00
8664;DHT22;4369;47.842;13.096;2023-08-06T12:30:09;18.10;1.00
8664;DHT22;4369;47.842;13.096;2023-08-06T12:32:36;17.90;1.00
8664;DHT22;4369;47.842;13.096;2023-08-06T12:35:04;17.70;1.00
8664;DHT22;4369;47.842;13.096;2023-08-06T12:37:34;17.60;1.00
8664;DHT22;4369;47.842;13.096;2023-08-06T12:40:01;17.60;1.00
8664;DHT22;4369;47.842;13.096;2023-08-06T12:42:28;17.60;1.00
8664;DHT22;4369;47.842;13.096;2023-08-06T12:44:55;17.90;1.00
8664;DHT22;4369;47.842;13.096;2023-08-06T12:47:22;18.10;1.00
8664;DHT22;4369;47.842;13.096;2023-08-06T12:49:49;18.20;1.00
8664;DHT22;4369;47.842;13.096;2023-08-06T12:52:17;18.30;1.00
8664;DHT22;4369;47.842;13.096;2023-08-06T12:54:46;18.20;1.00
8664;DHT22;4369;47.842;13.096;2023-08-06T12:57:13;18.20;1.00
8664;DHT22;4369;47.842;13.096;2023-08-06T12:59:40;18.00;1.00
8664;DHT22;4369;47.842;13.096;2023-08-06T13:02:07;17.90;1.00
8664;DHT22;4369;47.842;13.096;2023-08-06T13:04:34;17.80;1.00
8664;DHT22;4369;47.842;13.096;2023-08-06T13:07:01;17.50;1.00
8664;DHT22;4369;47.842;13.096;2023-08-06T13:09:28;17.60;1.00
8664;DHT22;4369;47.842;13.096;2023-08-06T13:11:56;17.80;1.00
8664;DHT22;4369;47.842;13.096;2023-08-06T13:14:23;17.70;1.00
8664;DHT22;4369;47.842;13.096;2023-08-06T13:16:50;17.60;1.00
8664;DHT22;4369;47.842;13.096;2023-08-06T13:19:17;17.60;1.00
8664;DHT22;4369;47.842;13.096;2023-08-06T13:22:01;17.50;1.00
8664;DHT22;4369;47.842;13.096;2023-08-06T13:24:29;17.40;1.00
8664;DHT22;4369;47.842;13.096;2023-08-06T13:26:58;17.50;1.00
8664;DHT22;4369;47.842;13.096;2023-08-06T13:29:25;17.40;1.00
8664;DHT22;4369;47.842;13.096;2023-08-06T13:31:52;17.20;1.00
8664;DHT22;4369;47.842;13.096;2023-08-06T13:34:19;17.00;1.00
8664;DHT22;4369;47.842;13.096;2023-08-06T13:36:46;17.10;1.00
8664;DHT22;4369;47.842;13.096;2023-08-06T13:39:13;17.00;1.00
8664;DHT22;4369;47.842;13.096;2023-08-06T13:41:42;17.00;1.00
8664;DHT22;4369;47.842;13.096;2023-08-06T13:44:10;16.90;1.00
8664;DHT22;4369;47.842;13.096;2023-08-06T13:46:39;16.90;1.00
8664;DHT22;4369;47.842;13.096;2023-08-06T13:49:06;16.90;1.00
8664;DHT22;4369;47.842;13.096;2023-08-06T13:51:33;16.90;1.00
8664;DHT22;4369;47.842;13.096;2023-08-06T13:56:27;16.80;1.00
8664;DHT22;4369;47.842;13.096;2023-08-06T13:58:55;16.90;1.00
8664;DHT22;4369;47.842;13.096;2023-08-06T14:01:23;17.00;1.00
8664;DHT22;4369;47.842;13.096;2023-08-06T14:06:27;16.90;1.00
8664;DHT22;4369;47.842;13.096;2023-08-06T14:08:54;16.90;1.00
8664;DHT22;4369;47.842;13.096;2023-08-06T14:11:21;16.80;1.00
8664;DHT22;4369;47.842;13.096;2023-08-06T14:13:48;16.70;1.00
8664;DHT22;4369;47.842;13.096;2023-08-06T14:16:15;16.80;1.00
8664;DHT22;4369;47.842;13.096;2023-08-06T14:18:43;16.70;1.00
8664;DHT22;4369;47.842;13.096;2023-08-06T14:21:10;16.70;1.00
8664;DHT22;4369;47.842;13.096;2023-08-06T14:23:37;16.60;1.00
8664;DHT22;4369;47.842;13.096;2023-08-06T14:26:04;16.60;1.00
8664;DHT22;4369;47.842;13.096;2023-08-06T14:28:31;16.60;1.00
8664;DHT22;4369;47.842;13.096;2023-08-06T14:30:57;16.60;1.00
8664;DHT22;4369;47.842;13.096;2023-08-06T14:33:24;16.60;1.00
8664;DHT22;4369;47.842;13.096;2023-08-06T14:35:52;16.50;1.00
8664;DHT22;4369;47.842;13.096;2023-08-06T14:38:19;16.50;1.00
8664;DHT22;4369;47.842;13.096;2023-08-06T14:40:46;16.40;47.20
8664;DHT22;4369;47.842;13.096;2023-08-06T14:43:13;16.40;99.90
8664;DHT22;4369;47.842;13.096;2023-08-06T14:45:40;16.30;99.90
8664;DHT22;4369;47.842;13.096;2023-08-06T14:48:07;16.30;99.90
8664;DHT22;4369;47.842;13.096;2023-08-06T14:50:34;16.30;99.90
8664;DHT22;4369;47.842;13.096;2023-08-06T14:55:38;16.20;99.90
8664;DHT22;4369;47.842;13.096;2023-08-06T14:58:05;16.20;1.00
8664;DHT22;4369;47.842;13.096;2023-08-06T15:00:32;16.30;1.00
8664;DHT22;4369;47.842;13.096;2023-08-06T15:02:58;16.30;99.90
8664;DHT22;4369;47.842;13.096;2023-08-06T15:05:26;16.30;99.90
8664;DHT22;4369;47.842;13.096;2023-08-06T15:07:53;16.20;1.00
8664;DHT22;4369;47.842;13.096;2023-08-06T15:10:20;16.20;99.90
8664;DHT22;4369;47.842;13.096;2023-08-06T15:12:48;16.20;99.90
8664;DHT22;4369;47.842;13.096;2023-08-06T15:15:15;16.20;99.90
8664;DHT22;4369;47.842;13.096;2023-08-06T15:17:42;16.10;99.90
8664;DHT22;4369;47.842;13.096;2023-08-06T15:20:11;16.10;99.90
8664;DHT22;4369;47.842;13.096;2023-08-06T15:22:38;16.00;99.90
8664;DHT22;4369;47.842;13.096;2023-08-06T15:25:06;16.00;99.90
8664;DHT22;4369;47.842;13.096;2023-08-06T15:27:32;15.90;99.90
8664;DHT22;4369;47.842;13.096;2023-08-06T15:30:02;15.80;99.90
8664;DHT22;4369;47.842;13.096;2023-08-06T15:32:29;15.80;99.90
8664;DHT22;4369;47.842;13.096;2023-08-06T15:34:56;15.70;99.90
8664;DHT22;4369;47.842;13.096;2023-08-06T15:37:23;15.70;1.00
8664;DHT22;4369;47.842;13.096;2023-08-06T15:39:50;15.60;1.00
8664;DHT22;4369;47.842;13.096;2023-08-06T15:42:17;15.60;73.40
8664;DHT22;4369;47.842;13.096;2023-08-06T15:44:44;15.60;38.20
8664;DHT22;4369;47.842;13.096;2023-08-06T15:47:13;15.60;28.40
8664;DHT22;4369;47.842;13.096;2023-08-06T15:49:40;15.50;99.90
8664;DHT22;4369;47.842;13.096;2023-08-06T15:52:07;15.50;1.00
8664;DHT22;4369;47.842;13.096;2023-08-06T15:54:34;15.40;1.00
8664;DHT22;4369;47.842;13.096;2023-08-06T15:57:01;15.40;99.90
8664;DHT22;4369;47.842;13.096;2023-08-06T15:59:30;15.40;1.00
8664;DHT22;4369;47.842;13.096;2023-08-06T16:01:57;15.40;55.00
8664;DHT22;4369;47.842;13.096;2023-08-06T16:04:26;15.40;1.00
8664;DHT22;4369;47.842;13.096;2023-08-06T16:06:53;15.30;99.90
8664;DHT22;4369;47.842;13.096;2023-08-06T16:09:20;15.30;99.90